sensor_id;sensor_type;location;lat;lon;timestamp;P1;durP1;ratioP1;P2;durP2;ratioP2
36009;SDS011;22076;52.182;5.404;2023-09-12T00:01:32;26.42;;;19.95;;
36009;SDS011;22076;52.182;5.404;2023-09-12T00:04:00;31.05;;;20.77;;
36009;SDS011;22076;52.182;5.404;2023-09-12T00:06:27;29.05;;;18.20;;
36009;SDS011;22076;52.182;5.404;2023-09-12T00:08:54;56.10;;;35.28;;
36009;SDS011;22076;52.182;5.404;2023-09-12T00:11:20;33.45;;;21.95;;
36009;SDS011;22076;52.182;5.404;2023-09-12T00:13:50;31.38;;;21.83;;
36009;SDS011;22076;52.182;5.404;2023-09-12T00:16:17;48.08;;;29.88;;
36009;SDS011;22076;52.182;5.404;2023-09-12T00:18:44;37.83;;;24.75;;
36009;SDS011;22076;52.182;5.404;2023-09-12T00:21:12;33.85;;;23.73;;
36009;SDS011;22076;52.182;5.404;2023-09-12T00:23:39;27.35;;;17.92;;
36009;SDS011;22076;52.182;5.404;2023-09-12T00:26:05;30.60;;;20.50;;
36009;SDS011;22076;52.182;5.404;2023-09-12T00:28:32;40.75;;;25.70;;
36009;SDS011;22076;52.182;5.404;2023-09-12T00:30:59;35.45;;;22.88;;
36009;SDS011;22076;52.182;5.404;2023-09-12T00:33:26;40.00;;;24.30;;
36009;SDS011;22076;52.182;5.404;2023-09-12T00:35:52;35.83;;;23.77;;
36009;SDS011;22076;52.182;5.404;2023-09-12T00:38:20;39.90;;;27.60;;
36009;SDS011;22076;52.182;5.404;2023-09-12T00:40:47;33.55;;;21.38;;
36009;SDS011;22076;52.182;5.404;2023-09-12T00:45:49;34.40;;;22.05;;
36009;SDS011;22076;52.182;5.404;2023-09-12T00:48:16;27.67;;;19.55;;
36009;SDS011;22076;52.182;5.404;2023-09-12T00:50:44;31.27;;;19.88;;
36009;SDS011;22076;52.182;5.404;2023-09-12T00:53:12;29.67;;;19.75;;
36009;SDS011;22076;52.182;5.404;2023-09-12T00:55:42;27.90;;;18.17;;
36009;SDS011;22076;52.182;5.404;2023-09-12T00:58:12;34.38;;;21.92;;
36009;SDS011;22076;52.182;5.404;2023-09-12T01:00:40;30.35;;;20.40;;
36009;SDS011;22076;52.182;5.404;2023-09-12T01:03:07;39.88;;;23.83;;
36009;SDS011;22076;52.182;5.404;2023-09-12T01:05:34;39.13;;;25.27;;
36009;SDS011;22076;52.182;5.404;2023-09-12T01:08:01;35.08;;;22.90;;
36009;SDS011;22076;52.182;5.404;2023-09-12T01:10:29;34.97;;;21.90;;
36009;SDS011;22076;52.182;5.404;2023-09-12T01:12:57;33.75;;;20.60;;
36009;SDS011;22076;52.182;5.404;2023-09-12T01:15:24;31.30;;;20.65;;
36009;SDS011;22076;52.182;5.404;2023-09-12T01:17:50;40.97;;;23.77;;
36009;SDS011;22076;52.182;5.404;2023-09-12T01:20:19;40.22;;;24.52;;
36009;SDS011;22076;52.182;5.404;2023-09-12T01:22:55;33.75;;;22.38;;
36009;SDS011;22076;52.182;5.404;2023-09-12T01:28:26;43.72;;;28.50;;
36009;SDS011;22076;52.182;5.404;2023-09-12T01:30:56;54.83;;;33.85;;
36009;SDS011;22076;52.182;5.404;2023-09-12T01:33:25;56.13;;;34.20;;
36009;SDS011;22076;52.182;5.404;2023-09-12T01:35:52;35.13;;;23.00;;
36009;SDS011;22076;52.182;5.404;2023-09-12T01:38:19;48.33;;;31.30;;
36009;SDS011;22076;52.182;5.404;2023-09-12T01:40:49;56.17;;;34.83;;
36009;SDS011;22076;52.182;5.404;2023-09-12T01:43:18;37.97;;;23.85;;
36009;SDS011;22076;52.182;5.404;2023-09-12T01:45:49;34.60;;;22.25;;
36009;SDS011;22076;52.182;5.404;2023-09-12T01:48:19;32.28;;;20.67;;
36009;SDS011;22076;52.182;5.404;2023-09-12T01:50:48;34.13;;;22.02;;
36009;SDS011;22076;52.182;5.404;2023-09-12T01:53:15;29.98;;;20.75;;
36009;SDS011;22076;52.182;5.404;2023-09-12T01:55:43;31.35;;;20.83;;
36009;SDS011;22076;52.182;5.404;2023-09-12T01:58:11;40.70;;;24.80;;
36009;SDS011;22076;52.182;5.404;2023-09-12T02:00:39;30.63;;;19.08;;
36009;SDS011;22076;52.182;5.404;2023-09-12T02:03:07;45.08;;;27.13;;
36009;SDS011;22076;52.182;5.404;2023-09-12T02:05:34;28.70;;;19.17;;
36009;SDS011;22076;52.182;5.404;2023-09-12T02:08:00;27.95;;;18.35;;
36009;SDS011;22076;52.182;5.404;2023-09-12T02:10:34;33.63;;;19.95;;
36009;SDS011;22076;52.182;5.404;2023-09-12T02:13:01;41.13;;;26.70;;
36009;SDS011;22076;52.182;5.404;2023-09-12T02:15:28;31.35;;;18.58;;
36009;SDS011;22076;52.182;5.404;2023-09-12T02:17:54;33.17;;;20.90;;
36009;SDS011;22076;52.182;5.404;2023-09-12T02:20:22;31.30;;;19.33;;
36009;SDS011;22076;52.182;5.404;2023-09-12T02:22:49;27.55;;;17.98;;
36009;SDS011;22076;52.182;5.404;2023-09-12T02:25:15;27.50;;;17.35;;
36009;SDS011;22076;52.182;5.404;2023-09-12T02:27:42;36.80;;;23.42;;
36009;SDS011;22076;52.182;5.404;2023-09-12T02:30:09;26.67;;;18.42;;
36009;SDS011;22076;52.182;5.404;2023-09-12T02:32:36;31.13;;;19.17;;
36009;SDS011;22076;52.182;5.404;2023-09-12T02:35:02;46.28;;;29.20;;
36009;SDS011;22076;52.182;5.404;2023-09-12T02:37:31;45.45;;;28.33;;
36009;SDS011;22076;52.182;5.404;2023-09-12T02:39:57;29.70;;;19.30;;
36009;SDS011;22076;52.182;5.404;2023-09-12T02:42:24;30.35;;;18.52;;
36009;SDS011;22076;52.182;5.404;2023-09-12T02:44:50;33.58;;;20.25;;
36009;SDS011;22076;52.182;5.404;2023-09-12T02:47:18;27.77;;;17.75;;
36009;SDS011;22076;52.182;5.404;2023-09-12T02:49:45;35.25;;;21.95;;
36009;SDS011;22076;52.182;5.404;2023-09-12T02:52:11;27.58;;;18.67;;
36009;SDS011;22076;52.182;5.404;2023-09-12T02:54:39;25.00;;;17.00;;
36009;SDS011;22076;52.182;5.404;2023-09-12T02:57:06;37.55;;;22.73;;
36009;SDS011;22076;52.182;5.404;2023-09-12T02:59:34;31.20;;;19.25;;
36009;SDS011;22076;52.182;5.404;2023-09-12T03:02:01;31.40;;;20.25;;
36009;SDS011;22076;52.182;5.404;2023-09-12T03:04:27;33.50;;;22.73;;
36009;SDS011;22076;52.182;5.404;2023-09-12T03:06:56;41.30;;;25.08;;
36009;SDS011;22076;52.182;5.404;2023-09-12T03:09:22;30.02;;;19.83;;
36009;SDS011;22076;52.182;5.404;2023-09-12T03:11:50;38.30;;;23.90;;
36009;SDS011;22076;52.182;5.404;2023-09-12T03:14:17;29.40;;;17.83;;
36009;SDS011;22076;52.182;5.404;2023-09-12T03:16:43;35.45;;;23.73;;
36009;SDS011;22076;52.182;5.404;2023-09-12T03:19:10;52.13;;;32.03;;
36009;SDS011;22076;52.182;5.404;2023-09-12T03:21:38;41.08;;;25.90;;
36009;SDS011;22076;52.182;5.404;2023-09-12T03:24:05;52.25;;;31.50;;
36009;SDS011;22076;52.182;5.404;2023-09-12T03:26:33;33.33;;;20.80;;
36009;SDS011;22076;52.182;5.404;2023-09-12T03:29:01;31.67;;;19.65;;
36009;SDS011;22076;52.182;5.404;2023-09-12T03:31:28;47.75;;;29.60;;
36009;SDS011;22076;52.182;5.404;2023-09-12T03:33:55;44.00;;;28.50;;
36009;SDS011;22076;52.182;5.404;2023-09-12T03:36:21;54.22;;;33.70;;
36009;SDS011;22076;52.182;5.404;2023-09-12T03:38:48;31.92;;;20.63;;
36009;SDS011;22076;52.182;5.404;2023-09-12T03:41:15;45.38;;;27.83;;
36009;SDS011;22076;52.182;5.404;2023-09-12T03:43:42;31.65;;;18.70;;
36009;SDS011;22076;52.182;5.404;2023-09-12T03:46:10;47.97;;;28.60;;
36009;SDS011;22076;52.182;5.404;2023-09-12T03:48:37;36.28;;;22.05;;
36009;SDS011;22076;52.182;5.404;2023-09-12T03:51:03;38.75;;;24.27;;
36009;SDS011;22076;52.182;5.404;2023-09-12T03:53:30;37.80;;;22.08;;
36009;SDS011;22076;52.182;5.404;2023-09-12T03:55:57;41.00;;;25.42;;
36009;SDS011;22076;52.182;5.404;2023-09-12T03:58:24;32.83;;;20.67;;
36009;SDS011;22076;52.182;5.404;2023-09-12T04:00:51;32.08;;;20.02;;
36009;SDS011;22076;52.182;5.404;2023-09-12T04:03:19;44.60;;;26.35;;
36009;SDS011;22076;52.182;5.404;2023-09-12T04:05:46;32.08;;;19.23;;
36009;SDS011;22076;52.182;5.404;2023-09-12T04:08:14;52.17;;;30.38;;
36009;SDS011;22076;52.182;5.404;2023-09-12T04:10:40;45.88;;;28.60;;
36009;SDS011;22076;52.182;5.404;2023-09-12T04:13:07;40.83;;;22.85;;
36009;SDS011;22076;52.182;5.404;2023-09-12T04:15:34;29.17;;;19.15;;
36009;SDS011;22076;52.182;5.404;2023-09-12T04:18:00;30.02;;;18.33;;
36009;SDS011;22076;52.182;5.404;2023-09-12T04:20:31;28.23;;;18.83;;
36009;SDS011;22076;52.182;5.404;2023-09-12T04:23:00;35.80;;;22.58;;
36009;SDS011;22076;52.182;5.404;2023-09-12T04:25:27;32.05;;;20.30;;
36009;SDS011;22076;52.182;5.404;2023-09-12T04:27:54;40.63;;;24.45;;
36009;SDS011;22076;52.182;5.404;2023-09-12T04:30:20;30.70;;;20.50;;
36009;SDS011;22076;52.182;5.404;2023-09-12T04:32:47;42.05;;;26.08;;
36009;SDS011;22076;52.182;5.404;2023-09-12T04:35:13;45.85;;;26.83;;
36009;SDS011;22076;52.182;5.404;2023-09-12T04:37:41;55.10;;;33.58;;
36009;SDS011;22076;52.182;5.404;2023-09-12T04:40:08;39.40;;;24.33;;
36009;SDS011;22076;52.182;5.404;2023-09-12T04:42:36;33.78;;;22.98;;
36009;SDS011;22076;52.182;5.404;2023-09-12T04:45:02;33.17;;;20.60;;
36009;SDS011;22076;52.182;5.404;2023-09-12T04:47:29;45.92;;;26.15;;
36009;SDS011;22076;52.182;5.404;2023-09-12T04:49:56;58.75;;;34.28;;
36009;SDS011;22076;52.182;5.404;2023-09-12T04:52:23;54.28;;;31.83;;
36009;SDS011;22076;52.182;5.404;2023-09-12T04:54:51;37.15;;;23.70;;
36009;SDS011;22076;52.182;5.404;2023-09-12T04:57:18;35.30;;;21.40;;
36009;SDS011;22076;52.182;5.404;2023-09-12T04:59:44;36.28;;;21.85;;
36009;SDS011;22076;52.182;5.404;2023-09-12T05:02:11;33.88;;;21.05;;
36009;SDS011;22076;52.182;5.404;2023-09-12T05:04:37;37.70;;;22.58;;
36009;SDS011;22076;52.182;5.404;2023-09-12T05:07:04;67.00;;;37.72;;
36009;SDS011;22076;52.182;5.404;2023-09-12T05:09:31;36.75;;;21.08;;
36009;SDS011;22076;52.182;5.404;2023-09-12T05:11:59;29.33;;;16.75;;
36009;SDS011;22076;52.182;5.404;2023-09-12T05:14:25;26.90;;;16.85;;
36009;SDS011;22076;52.182;5.404;2023-09-12T05:16:52;47.15;;;27.77;;
36009;SDS011;22076;52.182;5.404;2023-09-12T05:19:19;41.40;;;26.38;;
36009;SDS011;22076;52.182;5.404;2023-09-12T05:21:45;41.47;;;26.73;;
36009;SDS011;22076;52.182;5.404;2023-09-12T05:24:12;38.85;;;23.90;;
36009;SDS011;22076;52.182;5.404;2023-09-12T05:26:39;31.77;;;19.42;;
36009;SDS011;22076;52.182;5.404;2023-09-12T05:29:08;37.38;;;23.05;;
36009;SDS011;22076;52.182;5.404;2023-09-12T05:31:34;34.88;;;23.52;;
36009;SDS011;22076;52.182;5.404;2023-09-12T05:34:01;30.60;;;19.80;;
36009;SDS011;22076;52.182;5.404;2023-09-12T05:36:29;33.53;;;19.92;;
36009;SDS011;22076;52.182;5.404;2023-09-12T05:38:56;28.90;;;18.08;;
36009;SDS011;22076;52.182;5.404;2023-09-12T05:41:22;50.25;;;27.65;;
36009;SDS011;22076;52.182;5.404;2023-09-12T05:43:49;33.00;;;20.35;;
36009;SDS011;22076;52.182;5.404;2023-09-12T05:46:18;34.53;;;20.13;;
36009;SDS011;22076;52.182;5.404;2023-09-12T05:48:46;31.45;;;20.15;;
36009;SDS011;22076;52.182;5.404;2023-09-12T05:51:12;51.10;;;28.80;;
36009;SDS011;22076;52.182;5.404;2023-09-12T05:53:39;26.30;;;16.58;;
36009;SDS011;22076;52.182;5.404;2023-09-12T05:56:06;31.10;;;18.55;;
36009;SDS011;22076;52.182;5.404;2023-09-12T05:58:32;58.53;;;34.08;;
36009;SDS011;22076;52.182;5.404;2023-09-12T06:01:01;62.60;;;34.92;;
36009;SDS011;22076;52.182;5.404;2023-09-12T06:03:37;46.05;;;26.77;;
36009;SDS011;22076;52.182;5.404;2023-09-12T06:06:04;37.55;;;22.30;;
36009;SDS011;22076;52.182;5.404;2023-09-12T06:08:31;37.65;;;21.80;;
36009;SDS011;22076;52.182;5.404;2023-09-12T06:10:58;33.45;;;21.15;;
36009;SDS011;22076;52.182;5.404;2023-09-12T06:13:26;48.85;;;27.80;;
36009;SDS011;22076;52.182;5.404;2023-09-12T06:15:54;38.03;;;21.70;;
36009;SDS011;22076;52.182;5.404;2023-09-12T06:18:22;46.20;;;25.25;;
36009;SDS011;22076;52.182;5.404;2023-09-12T06:20:51;34.42;;;20.63;;
36009;SDS011;22076;52.182;5.404;2023-09-12T06:23:22;21.95;;;12.70;;
36009;SDS011;22076;52.182;5.404;2023-09-12T06:25:49;39.83;;;23.48;;
36009;SDS011;22076;52.182;5.404;2023-09-12T06:28:24;29.85;;;17.85;;
36009;SDS011;22076;52.182;5.404;2023-09-12T06:30:52;38.17;;;22.67;;
36009;SDS011;22076;52.182;5.404;2023-09-12T06:33:19;37.45;;;20.55;;
36009;SDS011;22076;52.182;5.404;2023-09-12T06:35:50;55.75;;;31.55;;
36009;SDS011;22076;52.182;5.404;2023-09-12T06:38:18;36.47;;;21.95;;
36009;SDS011;22076;52.182;5.404;2023-09-12T06:40:45;36.65;;;22.45;;
36009;SDS011;22076;52.182;5.404;2023-09-12T06:43:12;33.67;;;19.05;;
36009;SDS011;22076;52.182;5.404;2023-09-12T06:45:41;74.50;;;40.05;;
36009;SDS011;22076;52.182;5.404;2023-09-12T06:48:10;42.55;;;22.60;;
36009;SDS011;22076;52.182;5.404;2023-09-12T06:50:36;42.35;;;24.60;;
36009;SDS011;22076;52.182;5.404;2023-09-12T06:53:07;57.45;;;29.65;;
36009;SDS011;22076;52.182;5.404;2023-09-12T06:55:35;49.40;;;27.10;;
36009;SDS011;22076;52.182;5.404;2023-09-12T06:58:02;46.17;;;24.77;;
36009;SDS011;22076;52.182;5.404;2023-09-12T07:00:29;52.78;;;28.33;;
36009;SDS011;22076;52.182;5.404;2023-09-12T07:02:59;33.75;;;18.17;;
36009;SDS011;22076;52.182;5.404;2023-09-12T07:05:26;38.10;;;21.17;;
36009;SDS011;22076;52.182;5.404;2023-09-12T07:07:56;37.65;;;21.90;;
36009;SDS011;22076;52.182;5.404;2023-09-12T07:13:04;33.10;;;16.63;;
36009;SDS011;22076;52.182;5.404;2023-09-12T07:15:36;39.53;;;20.92;;
36009;SDS011;22076;52.182;5.404;2023-09-12T07:18:15;53.58;;;30.13;;
36009;SDS011;22076;52.182;5.404;2023-09-12T07:20:56;39.10;;;20.98;;
36009;SDS011;22076;52.182;5.404;2023-09-12T07:23:30;46.55;;;25.15;;
36009;SDS011;22076;52.182;5.404;2023-09-12T07:25:58;65.47;;;35.20;;
36009;SDS011;22076;52.182;5.404;2023-09-12T07:28:29;32.45;;;18.27;;
36009;SDS011;22076;52.182;5.404;2023-09-12T07:31:15;24.42;;;14.98;;
36009;SDS011;22076;52.182;5.404;2023-09-12T07:33:43;42.83;;;23.70;;
36009;SDS011;22076;52.182;5.404;2023-09-12T07:36:16;25.65;;;13.63;;
36009;SDS011;22076;52.182;5.404;2023-09-12T07:41:13;32.17;;;18.33;;
36009;SDS011;22076;52.182;5.404;2023-09-12T07:43:43;33.05;;;19.33;;
36009;SDS011;22076;52.182;5.404;2023-09-12T07:46:10;19.95;;;11.98;;
36009;SDS011;22076;52.182;5.404;2023-09-12T07:48:37;47.85;;;25.88;;
36009;SDS011;22076;52.182;5.404;2023-09-12T07:51:10;38.33;;;21.92;;
36009;SDS011;22076;52.182;5.404;2023-09-12T07:53:44;40.83;;;23.05;;
36009;SDS011;22076;52.182;5.404;2023-09-12T07:56:10;30.58;;;17.67;;
36009;SDS011;22076;52.182;5.404;2023-09-12T07:58:38;22.08;;;12.98;;
36009;SDS011;22076;52.182;5.404;2023-09-12T08:01:09;59.60;;;30.58;;
36009;SDS011;22076;52.182;5.404;2023-09-12T08:03:39;24.80;;;14.65;;
36009;SDS011;22076;52.182;5.404;2023-09-12T08:06:14;26.08;;;13.88;;
36009;SDS011;22076;52.182;5.404;2023-09-12T08:08:44;50.60;;;26.33;;
36009;SDS011;22076;52.182;5.404;2023-09-12T08:11:13;22.52;;;12.30;;
36009;SDS011;22076;52.182;5.404;2023-09-12T08:13:48;32.30;;;16.35;;
36009;SDS011;22076;52.182;5.404;2023-09-12T08:16:19;23.08;;;13.85;;
36009;SDS011;22076;52.182;5.404;2023-09-12T08:18:49;19.17;;;10.32;;
36009;SDS011;22076;52.182;5.404;2023-09-12T08:21:19;20.52;;;11.13;;
36009;SDS011;22076;52.182;5.404;2023-09-12T08:23:50;16.58;;;8.95;;
36009;SDS011;22076;52.182;5.404;2023-09-12T08:29:01;20.75;;;11.68;;
36009;SDS011;22076;52.182;5.404;2023-09-12T08:31:33;22.30;;;12.48;;
36009;SDS011;22076;52.182;5.404;2023-09-12T08:34:06;19.05;;;10.30;;
36009;SDS011;22076;52.182;5.404;2023-09-12T08:36:35;30.45;;;15.90;;
36009;SDS011;22076;52.182;5.404;2023-09-12T08:39:04;28.58;;;14.50;;
36009;SDS011;22076;52.182;5.404;2023-09-12T08:41:35;24.50;;;14.25;;
36009;SDS011;22076;52.182;5.404;2023-09-12T08:44:08;46.90;;;27.25;;
36009;SDS011;22076;52.182;5.404;2023-09-12T08:46:43;24.17;;;13.40;;
36009;SDS011;22076;52.182;5.404;2023-09-12T08:49:28;22.25;;;12.23;;
36009;SDS011;22076;52.182;5.404;2023-09-12T08:54:52;32.72;;;17.40;;
36009;SDS011;22076;52.182;5.404;2023-09-12T08:57:19;52.47;;;27.00;;
36009;SDS011;22076;52.182;5.404;2023-09-12T08:59:50;31.90;;;16.48;;
36009;SDS011;22076;52.182;5.404;2023-09-12T09:02:19;30.50;;;15.27;;
36009;SDS011;22076;52.182;5.404;2023-09-12T09:04:47;29.52;;;16.75;;
36009;SDS011;22076;52.182;5.404;2023-09-12T09:07:16;14.63;;;9.20;;
36009;SDS011;22076;52.182;5.404;2023-09-12T09:09:46;26.75;;;14.90;;
36009;SDS011;22076;52.182;5.404;2023-09-12T09:12:14;30.13;;;17.60;;
36009;SDS011;22076;52.182;5.404;2023-09-12T09:14:41;35.22;;;21.40;;
36009;SDS011;22076;52.182;5.404;2023-09-12T09:17:10;40.00;;;22.38;;
36009;SDS011;22076;52.182;5.404;2023-09-12T09:22:26;44.88;;;26.23;;
36009;SDS011;22076;52.182;5.404;2023-09-12T09:25:05;28.40;;;15.07;;
36009;SDS011;22076;52.182;5.404;2023-09-12T09:33:12;23.90;;;13.30;;
36009;SDS011;22076;52.182;5.404;2023-09-12T09:35:42;31.73;;;18.05;;
36009;SDS011;22076;52.182;5.404;2023-09-12T09:38:10;36.17;;;21.02;;
36009;SDS011;22076;52.182;5.404;2023-09-12T09:43:19;16.75;;;9.82;;
36009;SDS011;22076;52.182;5.404;2023-09-12T09:45:47;36.17;;;22.63;;
36009;SDS011;22076;52.182;5.404;2023-09-12T09:48:20;19.48;;;11.13;;
36009;SDS011;22076;52.182;5.404;2023-09-12T09:50:49;27.38;;;17.52;;
36009;SDS011;22076;52.182;5.404;2023-09-12T09:53:21;15.35;;;9.88;;
36009;SDS011;22076;52.182;5.404;2023-09-12T09:55:55;34.05;;;21.60;;
36009;SDS011;22076;52.182;5.404;2023-09-12T09:58:33;22.42;;;13.93;;
36009;SDS011;22076;52.182;5.404;2023-09-12T10:01:05;22.55;;;14.57;;
36009;SDS011;22076;52.182;5.404;2023-09-12T10:03:40;29.70;;;17.95;;
36009;SDS011;22076;52.182;5.404;2023-09-12T10:06:12;35.80;;;19.25;;
36009;SDS011;22076;52.182;5.404;2023-09-12T10:08:45;25.40;;;15.55;;
36009;SDS011;22076;52.182;5.404;2023-09-12T10:11:22;27.70;;;17.27;;
36009;SDS011;22076;52.182;5.404;2023-09-12T10:13:52;24.00;;;16.20;;
36009;SDS011;22076;52.182;5.404;2023-09-12T10:16:20;29.48;;;18.60;;
36009;SDS011;22076;52.182;5.404;2023-09-12T10:18:55;30.48;;;17.88;;
36009;SDS011;22076;52.182;5.404;2023-09-12T10:21:28;15.55;;;11.85;;
36009;SDS011;22076;52.182;5.404;2023-09-12T10:23:58;24.63;;;15.65;;
36009;SDS011;22076;52.182;5.404;2023-09-12T10:26:31;24.67;;;16.98;;
36009;SDS011;22076;52.182;5.404;2023-09-12T10:29:10;15.65;;;10.82;;
36009;SDS011;22076;52.182;5.404;2023-09-12T10:31:39;23.33;;;15.30;;
36009;SDS011;22076;52.182;5.404;2023-09-12T10:34:07;20.05;;;14.23;;
36009;SDS011;22076;52.182;5.404;2023-09-12T10:36:35;20.88;;;13.75;;
36009;SDS011;22076;52.182;5.404;2023-09-12T10:39:04;30.70;;;18.38;;
36009;SDS011;22076;52.182;5.404;2023-09-12T10:41:33;20.73;;;13.13;;
36009;SDS011;22076;52.182;5.404;2023-09-12T10:44:06;25.48;;;15.50;;
36009;SDS011;22076;52.182;5.404;2023-09-12T10:46:36;18.92;;;12.32;;
36009;SDS011;22076;52.182;5.404;2023-09-12T10:49:07;17.42;;;11.25;;
36009;SDS011;22076;52.182;5.404;2023-09-12T10:51:39;22.98;;;16.02;;
36009;SDS011;22076;52.182;5.404;2023-09-12T10:54:06;20.23;;;12.77;;
36009;SDS011;22076;52.182;5.404;2023-09-12T10:56:34;15.63;;;12.15;;
36009;SDS011;22076;52.182;5.404;2023-09-12T10:59:13;27.05;;;17.20;;
36009;SDS011;22076;52.182;5.404;2023-09-12T11:01:46;24.00;;;14.65;;
36009;SDS011;22076;52.182;5.404;2023-09-12T11:04:33;27.83;;;17.20;;
36009;SDS011;22076;52.182;5.404;2023-09-12T11:07:13;15.30;;;11.30;;
36009;SDS011;22076;52.182;5.404;2023-09-12T11:12:47;17.98;;;12.77;;
36009;SDS011;22076;52.182;5.404;2023-09-12T11:15:14;17.67;;;12.95;;
36009;SDS011;22076;52.182;5.404;2023-09-12T11:17:44;22.02;;;13.70;;
36009;SDS011;22076;52.182;5.404;2023-09-12T11:20:14;19.90;;;12.75;;
36009;SDS011;22076;52.182;5.404;2023-09-12T11:22:45;14.82;;;10.23;;
36009;SDS011;22076;52.182;5.404;2023-09-12T11:25:16;21.10;;;15.02;;
36009;SDS011;22076;52.182;5.404;2023-09-12T11:28:01;16.63;;;11.40;;
36009;SDS011;22076;52.182;5.404;2023-09-12T11:33:40;28.75;;;18.50;;
36009;SDS011;22076;52.182;5.404;2023-09-12T11:36:08;26.88;;;17.45;;
36009;SDS011;22076;52.182;5.404;2023-09-12T11:41:48;18.50;;;13.88;;
36009;SDS011;22076;52.182;5.404;2023-09-12T11:44:17;14.15;;;9.60;;
36009;SDS011;22076;52.182;5.404;2023-09-12T11:46:44;27.83;;;19.98;;
36009;SDS011;22076;52.182;5.404;2023-09-12T11:52:18;18.60;;;12.63;;
36009;SDS011;22076;52.182;5.404;2023-09-12T11:54:47;27.50;;;17.38;;
36009;SDS011;22076;52.182;5.404;2023-09-12T11:57:14;19.55;;;12.68;;
36009;SDS011;22076;52.182;5.404;2023-09-12T11:59:44;14.88;;;8.55;;
36009;SDS011;22076;52.182;5.404;2023-09-12T12:02:13;15.10;;;10.85;;
36009;SDS011;22076;52.182;5.404;2023-09-12T12:04:41;21.17;;;14.52;;
36009;SDS011;22076;52.182;5.404;2023-09-12T12:07:10;14.48;;;10.75;;
36009;SDS011;22076;52.182;5.404;2023-09-12T12:09:38;16.83;;;11.68;;
36009;SDS011;22076;52.182;5.404;2023-09-12T12:12:12;16.63;;;10.57;;
36009;SDS011;22076;52.182;5.404;2023-09-12T12:14:40;14.50;;;10.98;;
36009;SDS011;22076;52.182;5.404;2023-09-12T12:17:09;12.75;;;8.98;;
36009;SDS011;22076;52.182;5.404;2023-09-12T12:19:37;20.95;;;15.32;;
36009;SDS011;22076;52.182;5.404;2023-09-12T12:22:04;9.15;;;7.03;;
36009;SDS011;22076;52.182;5.404;2023-09-12T12:24:40;18.38;;;10.30;;
36009;SDS011;22076;52.182;5.404;2023-09-12T12:27:08;14.25;;;8.48;;
36009;SDS011;22076;52.182;5.404;2023-09-12T12:29:39;10.68;;;7.30;;
36009;SDS011;22076;52.182;5.404;2023-09-12T12:32:08;13.32;;;8.13;;
36009;SDS011;22076;52.182;5.404;2023-09-12T12:34:35;9.25;;;7.22;;
36009;SDS011;22076;52.182;5.404;2023-09-12T12:37:03;8.13;;;6.30;;
36009;SDS011;22076;52.182;5.404;2023-09-12T12:39:33;8.05;;;5.82;;
36009;SDS011;22076;52.182;5.404;2023-09-12T12:42:01;15.85;;;9.55;;
36009;SDS011;22076;52.182;5.404;2023-09-12T12:44:35;12.93;;;7.35;;
36009;SDS011;22076;52.182;5.404;2023-09-12T12:47:08;5.93;;;5.30;;
36009;SDS011;22076;52.182;5.404;2023-09-12T12:49:53;14.43;;;9.80;;
36009;SDS011;22076;52.182;5.404;2023-09-12T12:52:24;8.88;;;6.55;;
36009;SDS011;22076;52.182;5.404;2023-09-12T12:55:03;11.00;;;7.43;;
36009;SDS011;22076;52.182;5.404;2023-09-12T12:57:32;11.43;;;6.47;;
36009;SDS011;22076;52.182;5.404;2023-09-12T13:00:04;10.80;;;7.78;;
36009;SDS011;22076;52.182;5.404;2023-09-12T13:02:33;13.68;;;8.77;;
36009;SDS011;22076;52.182;5.404;2023-09-12T13:05:02;12.10;;;8.80;;
36009;SDS011;22076;52.182;5.404;2023-09-12T13:07:29;11.57;;;8.00;;
36009;SDS011;22076;52.182;5.404;2023-09-12T13:09:55;14.10;;;10.63;;
36009;SDS011;22076;52.182;5.404;2023-09-12T13:12:22;13.15;;;10.57;;
36009;SDS011;22076;52.182;5.404;2023-09-12T13:14:52;14.48;;;9.63;;
36009;SDS011;22076;52.182;5.404;2023-09-12T13:17:19;14.95;;;10.35;;
36009;SDS011;22076;52.182;5.404;2023-09-12T13:19:46;16.00;;;10.90;;
36009;SDS011;22076;52.182;5.404;2023-09-12T13:22:12;16.58;;;11.32;;
36009;SDS011;22076;52.182;5.404;2023-09-12T13:24:39;16.77;;;11.07;;
36009;SDS011;22076;52.182;5.404;2023-09-12T13:27:06;19.05;;;12.13;;
36009;SDS011;22076;52.182;5.404;2023-09-12T13:29:33;17.35;;;11.05;;
36009;SDS011;22076;52.182;5.404;2023-09-12T13:32:01;11.63;;;8.38;;
36009;SDS011;22076;52.182;5.404;2023-09-12T13:34:29;14.50;;;9.68;;
36009;SDS011;22076;52.182;5.404;2023-09-12T13:36:58;12.20;;;8.65;;
36009;SDS011;22076;52.182;5.404;2023-09-12T13:39:32;11.57;;;8.18;;
36009;SDS011;22076;52.182;5.404;2023-09-12T13:42:00;11.77;;;6.68;;
36009;SDS011;22076;52.182;5.404;2023-09-12T13:44:35;11.65;;;8.27;;
36009;SDS011;22076;52.182;5.404;2023-09-12T13:47:05;12.20;;;8.57;;
36009;SDS011;22076;52.182;5.404;2023-09-12T13:49:38;12.88;;;7.80;;
36009;SDS011;22076;52.182;5.404;2023-09-12T13:54:38;7.72;;;5.90;;
36009;SDS011;22076;52.182;5.404;2023-09-12T13:57:06;17.92;;;10.65;;
36009;SDS011;22076;52.182;5.404;2023-09-12T13:59:33;19.23;;;10.90;;
36009;SDS011;22076;52.182;5.404;2023-09-12T14:02:00;13.85;;;9.25;;
36009;SDS011;22076;52.182;5.404;2023-09-12T14:04:30;16.27;;;10.60;;
36009;SDS011;22076;52.182;5.404;2023-09-12T14:07:01;13.63;;;10.60;;
36009;SDS011;22076;52.182;5.404;2023-09-12T14:09:28;10.63;;;7.88;;
36009;SDS011;22076;52.182;5.404;2023-09-12T14:12:01;11.15;;;8.40;;
36009;SDS011;22076;52.182;5.404;2023-09-12T14:14:28;18.40;;;10.60;;
36009;SDS011;22076;52.182;5.404;2023-09-12T14:16:59;14.52;;;10.57;;
36009;SDS011;22076;52.182;5.404;2023-09-12T14:19:34;11.93;;;8.25;;
36009;SDS011;22076;52.182;5.404;2023-09-12T14:22:08;14.10;;;9.18;;
36009;SDS011;22076;52.182;5.404;2023-09-12T14:24:40;14.52;;;9.38;;
36009;SDS011;22076;52.182;5.404;2023-09-12T14:29:40;18.42;;;10.48;;
36009;SDS011;22076;52.182;5.404;2023-09-12T14:32:10;14.90;;;9.20;;
36009;SDS011;22076;52.182;5.404;2023-09-12T14:34:38;18.00;;;10.25;;
36009;SDS011;22076;52.182;5.404;2023-09-12T14:37:05;12.02;;;8.80;;
36009;SDS011;22076;52.182;5.404;2023-09-12T14:39:34;15.18;;;11.35;;
36009;SDS011;22076;52.182;5.404;2023-09-12T14:42:02;15.25;;;10.40;;
36009;SDS011;22076;52.182;5.404;2023-09-12T14:44:39;16.40;;;10.85;;
36009;SDS011;22076;52.182;5.404;2023-09-12T14:49:42;10.85;;;7.30;;
36009;SDS011;22076;52.182;5.404;2023-09-12T14:52:08;9.40;;;6.50;;
36009;SDS011;22076;52.182;5.404;2023-09-12T14:54:43;12.27;;;9.02;;
36009;SDS011;22076;52.182;5.404;2023-09-12T14:57:09;16.13;;;10.10;;
36009;SDS011;22076;52.182;5.404;2023-09-12T15:02:11;16.58;;;9.95;;
36009;SDS011;22076;52.182;5.404;2023-09-12T15:04:38;10.52;;;6.78;;
36009;SDS011;22076;52.182;5.404;2023-09-12T15:07:08;9.73;;;5.57;;
36009;SDS011;22076;52.182;5.404;2023-09-12T15:09:37;8.60;;;6.15;;
36009;SDS011;22076;52.182;5.404;2023-09-12T15:12:12;8.95;;;5.88;;
36009;SDS011;22076;52.182;5.404;2023-09-12T15:14:38;7.90;;;5.43;;
36009;SDS011;22076;52.182;5.404;2023-09-12T15:17:05;5.45;;;4.70;;
36009;SDS011;22076;52.182;5.404;2023-09-12T15:19:31;7.75;;;5.00;;
36009;SDS011;22076;52.182;5.404;2023-09-12T15:21:58;7.53;;;4.18;;
36009;SDS011;22076;52.182;5.404;2023-09-12T15:24:26;3.90;;;3.47;;